sensor_id;sensor_type;location;lat;lon;timestamp;pressure;altitude;pressure_sealevel;temperature;humidity
3254;BME280;1639;42.804;23.342;2023-07-29T00:00:43;72091.31;;;-148.52;56.71
3254;BME280;1639;42.804;23.342;2023-07-29T00:03:09;72103.72;;;-148.52;57.55
3254;BME280;1639;42.804;23.342;2023-07-29T00:05:36;72103.72;;;-148.52;57.46
3254;BME280;1639;42.804;23.342;2023-07-29T00:08:02;72126.47;;;-148.52;57.79
3254;BME280;1639;42.804;23.342;2023-07-29T00:10:28;72138.88;;;-148.52;57.89
3254;BME280;1639;42.804;23.342;2023-07-29T00:12:54;72151.28;;;-148.52;58.25
3254;BME280;1639;42.804;23.342;2023-07-29T00:15:19;72157.50;;;-148.52;58.44
3254;BME280;1639;42.804;23.342;2023-07-29T00:17:45;72161.63;;;-148.52;59.17
3254;BME280;1639;42.804;23.342;2023-07-29T00:20:10;72174.03;;;-148.52;59.42
3254;BME280;1639;42.804;23.342;2023-07-29T00:22:36;72200.91;;;-148.52;59.77
3254;BME280;1639;42.804;23.342;2023-07-29T00:25:01;72205.06;;;-148.52;60.45
3254;BME280;1639;42.804;23.342;2023-07-29T00:27:27;72207.13;;;-148.52;60.47
3254;BME280;1639;42.804;23.342;2023-07-29T00:29:52;72217.47;;;-148.52;60.74
3254;BME280;1639;42.804;23.342;2023-07-29T00:32:17;72211.25;;;-148.52;60.94
3254;BME280;1639;42.804;23.342;2023-07-29T00:34:43;72225.72;;;-148.52;61.36
3254;BME280;1639;42.804;23.342;2023-07-29T00:37:09;72227.78;;;-148.52;61.18
3254;BME280;1639;42.804;23.342;2023-07-29T00:39:36;72238.13;;;-148.52;61.58
3254;BME280;1639;42.804;23.342;2023-07-29T00:42:03;72229.88;;;-148.52;61.38
3254;BME280;1639;42.804;23.342;2023-07-29T00:44:28;72215.38;;;-148.52;60.95
3254;BME280;1639;42.804;23.342;2023-07-29T00:46:54;72229.88;;;-148.52;61.42
3254;BME280;1639;42.804;23.342;2023-07-29T00:49:20;72219.53;;;-148.52;61.29
3254;BME280;1639;42.804;23.342;2023-07-29T00:51:47;72231.94;;;-148.52;61.37
3254;BME280;1639;42.804;23.342;2023-07-29T00:54:13;72231.94;;;-148.52;61.48
3254;BME280;1639;42.804;23.342;2023-07-29T00:56:39;72221.59;;;-148.52;61.33
3254;BME280;1639;42.804;23.342;2023-07-29T00:59:04;72213.31;;;-148.52;60.89
3254;BME280;1639;42.804;23.342;2023-07-29T01:01:31;72209.19;;;-148.52;61.01
3254;BME280;1639;42.804;23.342;2023-07-29T01:03:57;72203.00;;;-148.52;60.69
3254;BME280;1639;42.804;23.342;2023-07-29T01:14:31;72194.72;;;-148.52;60.30
3254;BME280;1639;42.804;23.342;2023-07-29T01:17:00;72200.91;;;-148.52;60.45
3254;BME280;1639;42.804;23.342;2023-07-29T01:19:43;72207.13;;;-148.52;60.76
3254;BME280;1639;42.804;23.342;2023-07-29T01:22:11;72203.00;;;-148.52;60.70
3254;BME280;1639;42.804;23.342;2023-07-29T01:24:38;72205.06;;;-148.52;60.81
3254;BME280;1639;42.804;23.342;2023-07-29T01:27:04;72200.91;;;-148.52;60.74
3254;BME280;1639;42.804;23.342;2023-07-29T01:29:30;72196.78;;;-148.52;60.62
3254;BME280;1639;42.804;23.342;2023-07-29T01:32:01;72186.44;;;-148.52;60.33
3254;BME280;1639;42.804;23.342;2023-07-29T01:34:41;72190.56;;;-148.52;60.23
3254;BME280;1639;42.804;23.342;2023-07-29T01:37:12;72186.44;;;-148.52;60.13
3254;BME280;1639;42.804;23.342;2023-07-29T01:39:40;72190.56;;;-148.52;60.04
3254;BME280;1639;42.804;23.342;2023-07-29T01:42:07;72182.31;;;-148.52;59.90
3254;BME280;1639;42.804;23.342;2023-07-29T01:44:32;72178.16;;;-148.52;59.57
3254;BME280;1639;42.804;23.342;2023-07-29T01:46:59;72184.38;;;-148.52;59.95
3254;BME280;1639;42.804;23.342;2023-07-29T01:49:24;72203.00;;;-148.52;59.67
3254;BME280;1639;42.804;23.342;2023-07-29T01:51:50;72207.13;;;-148.52;59.95
3254;BME280;1639;42.804;23.342;2023-07-29T01:54:15;72211.25;;;-148.52;60.05
3254;BME280;1639;42.804;23.342;2023-07-29T01:56:41;72219.53;;;-148.52;60.11
3254;BME280;1639;42.804;23.342;2023-07-29T01:59:06;72213.31;;;-148.52;60.09
3254;BME280;1639;42.804;23.342;2023-07-29T02:01:31;72219.53;;;-148.52;60.27
3254;BME280;1639;42.804;23.342;2023-07-29T02:03:57;72217.47;;;-148.52;59.89
3254;BME280;1639;42.804;23.342;2023-07-29T02:06:22;72223.66;;;-148.52;60.03
3254;BME280;1639;42.804;23.342;2023-07-29T02:08:48;72227.78;;;-148.52;60.28
3254;BME280;1639;42.804;23.342;2023-07-29T02:11:13;72231.94;;;-148.52;60.67
3254;BME280;1639;42.804;23.342;2023-07-29T02:13:38;72242.28;;;-148.52;60.76
3254;BME280;1639;42.804;23.342;2023-07-29T02:16:04;72236.06;;;-148.52;60.98
3254;BME280;1639;42.804;23.342;2023-07-29T02:18:29;72238.13;;;-148.52;60.86
3254;BME280;1639;42.804;23.342;2023-07-29T02:20:54;72248.47;;;-148.52;61.12
3254;BME280;1639;42.804;23.342;2023-07-29T02:23:20;72238.13;;;-148.52;60.98
3254;BME280;1639;42.804;23.342;2023-07-29T02:25:45;72242.28;;;-148.52;61.17
3254;BME280;1639;42.804;23.342;2023-07-29T02:28:11;72260.88;;;-148.52;61.01
3254;BME280;1639;42.804;23.342;2023-07-29T02:30:36;72250.53;;;-148.52;61.15
3254;BME280;1639;42.804;23.342;2023-07-29T02:33:02;72260.88;;;-148.52;61.42
3254;BME280;1639;42.804;23.342;2023-07-29T02:35:27;72256.75;;;-148.52;61.65
3254;BME280;1639;42.804;23.342;2023-07-29T02:37:53;72250.53;;;-148.52;61.64
3254;BME280;1639;42.804;23.342;2023-07-29T02:40:18;72269.16;;;-148.52;61.56
3254;BME280;1639;42.804;23.342;2023-07-29T02:42:46;72269.16;;;-148.52;62.08
3254;BME280;1639;42.804;23.342;2023-07-29T02:45:11;72273.28;;;-148.52;62.15
3254;BME280;1639;42.804;23.342;2023-07-29T02:47:37;72273.28;;;-148.52;62.44
3254;BME280;1639;42.804;23.342;2023-07-29T02:50:03;72281.56;;;-148.52;62.28
3254;BME280;1639;42.804;23.342;2023-07-29T02:52:28;72308.44;;;-148.52;62.99
3254;BME280;1639;42.804;23.342;2023-07-29T02:54:53;72316.72;;;-148.52;63.97
3254;BME280;1639;42.804;23.342;2023-07-29T02:57:19;72331.19;;;-148.52;64.19
3254;BME280;1639;42.804;23.342;2023-07-29T02:59:45;72364.28;;;-148.52;65.24
3254;BME280;1639;42.804;23.342;2023-07-29T03:02:11;72418.03;;;-148.52;68.27
3254;BME280;1639;42.804;23.342;2023-07-29T03:04:36;72418.03;;;-148.52;69.08
3254;BME280;1639;42.804;23.342;2023-07-29T03:07:02;72428.38;;;-148.52;68.75
3254;BME280;1639;42.804;23.342;2023-07-29T03:09:27;72426.31;;;-148.52;68.85
3254;BME280;1639;42.804;23.342;2023-07-29T03:11:53;72440.78;;;-148.52;69.17
3254;BME280;1639;42.804;23.342;2023-07-29T03:14:20;72442.84;;;-148.52;69.58
3254;BME280;1639;42.804;23.342;2023-07-29T03:16:46;72436.66;;;-148.52;69.52
3254;BME280;1639;42.804;23.342;2023-07-29T03:19:12;72467.66;;;-148.52;70.63
3254;BME280;1639;42.804;23.342;2023-07-29T03:21:37;72455.25;;;-148.52;70.29
3254;BME280;1639;42.804;23.342;2023-07-29T03:24:03;72455.25;;;-148.52;70.35
3254;BME280;1639;42.804;23.342;2023-07-29T03:26:28;72453.19;;;-148.52;70.33
3254;BME280;1639;42.804;23.342;2023-07-29T03:28:54;72455.25;;;-148.52;70.00
3254;BME280;1639;42.804;23.342;2023-07-29T03:31:19;72440.78;;;-148.52;69.48
3254;BME280;1639;42.804;23.342;2023-07-29T03:33:44;72440.78;;;-148.52;69.52
3254;BME280;1639;42.804;23.342;2023-07-29T03:36:10;72430.44;;;-148.52;68.88
3254;BME280;1639;42.804;23.342;2023-07-29T03:38:35;72432.53;;;-148.52;68.99
3254;BME280;1639;42.804;23.342;2023-07-29T03:41:05;72432.53;;;-148.52;68.89
3254;BME280;1639;42.804;23.342;2023-07-29T03:43:31;72428.38;;;-148.52;69.34
3254;BME280;1639;42.804;23.342;2023-07-29T03:45:56;72447.00;;;-148.52;69.91
3254;BME280;1639;42.804;23.342;2023-07-29T03:48:21;72438.72;;;-148.52;69.79
3254;BME280;1639;42.804;23.342;2023-07-29T03:50:47;72422.19;;;-148.52;69.15
3254;BME280;1639;42.804;23.342;2023-07-29T03:53:12;72434.59;;;-148.52;69.51
3254;BME280;1639;42.804;23.342;2023-07-29T03:55:38;72434.59;;;-148.52;69.41
3254;BME280;1639;42.804;23.342;2023-07-29T03:58:03;72430.44;;;-148.52;69.51
3254;BME280;1639;42.804;23.342;2023-07-29T04:00:28;72442.84;;;-148.52;69.73
3254;BME280;1639;42.804;23.342;2023-07-29T04:02:54;72438.72;;;-148.52;69.68
3254;BME280;1639;42.804;23.342;2023-07-29T04:05:19;72457.34;;;-148.52;70.23
3254;BME280;1639;42.804;23.342;2023-07-29T04:07:45;72469.75;;;-148.52;70.53
3254;BME280;1639;42.804;23.342;2023-07-29T04:10:10;72453.19;;;-148.52;70.73
3254;BME280;1639;42.804;23.342;2023-07-29T04:12:36;72411.84;;;-148.52;70.33
3254;BME280;1639;42.804;23.342;2023-07-29T04:15:02;72401.50;;;-148.52;69.58
3254;BME280;1639;42.804;23.342;2023-07-29T04:17:27;72389.09;;;-148.52;68.82
3254;BME280;1639;42.804;23.342;2023-07-29T04:19:53;72393.22;;;-148.52;68.71
3254;BME280;1639;42.804;23.342;2023-07-29T04:22:18;72407.69;;;-148.52;68.79
3254;BME280;1639;42.804;23.342;2023-07-29T04:24:43;72384.97;;;-148.52;68.42
3254;BME280;1639;42.804;23.342;2023-07-29T04:27:09;72364.28;;;-148.52;68.05
3254;BME280;1639;42.804;23.342;2023-07-29T04:29:35;72360.13;;;-148.52;67.14
3254;BME280;1639;42.804;23.342;2023-07-29T04:32:01;72335.31;;;-148.52;67.25
3254;BME280;1639;42.804;23.342;2023-07-29T04:34:27;72339.47;;;-148.52;66.50
3254;BME280;1639;42.804;23.342;2023-07-29T04:36:52;72347.72;;;-148.52;66.69
3254;BME280;1639;42.804;23.342;2023-07-29T04:39:18;72343.59;;;-148.52;67.08
3254;BME280;1639;42.804;23.342;2023-07-29T04:41:43;72343.59;;;-148.52;66.53
3254;BME280;1639;42.804;23.342;2023-07-29T04:44:08;72322.91;;;-148.52;66.55
3254;BME280;1639;42.804;23.342;2023-07-29T04:46:35;72308.44;;;-148.52;66.52
3254;BME280;1639;42.804;23.342;2023-07-29T04:49:01;72277.44;;;-148.52;66.69
3254;BME280;1639;42.804;23.342;2023-07-29T04:51:28;72252.63;;;-148.52;66.25
3254;BME280;1639;42.804;23.342;2023-07-29T04:53:53;72242.28;;;-148.52;66.58
3254;BME280;1639;42.804;23.342;2023-07-29T04:56:19;72229.88;;;-148.52;66.50
3254;BME280;1639;42.804;23.342;2023-07-29T04:58:44;72223.66;;;-148.52;66.36
3254;BME280;1639;42.804;23.342;2023-07-29T05:01:10;72213.31;;;-148.52;66.29
3254;BME280;1639;42.804;23.342;2023-07-29T05:03:35;72240.22;;;-148.52;65.07
3254;BME280;1639;42.804;23.342;2023-07-29T05:06:02;72231.94;;;-148.52;64.83
3254;BME280;1639;42.804;23.342;2023-07-29T05:08:27;72227.78;;;-148.52;65.33
3254;BME280;1639;42.804;23.342;2023-07-29T05:10:53;72219.53;;;-148.52;65.25
3254;BME280;1639;42.804;23.342;2023-07-29T05:13:19;72194.72;;;-148.52;64.58
3254;BME280;1639;42.804;23.342;2023-07-29T05:15:44;72182.31;;;-148.52;63.67
3254;BME280;1639;42.804;23.342;2023-07-29T05:18:11;72157.50;;;-148.52;63.26
3254;BME280;1639;42.804;23.342;2023-07-29T05:20:36;72147.16;;;-148.52;64.10
3254;BME280;1639;42.804;23.342;2023-07-29T05:23:02;72132.69;;;-148.52;62.13
3254;BME280;1639;42.804;23.342;2023-07-29T05:25:28;72122.34;;;-148.52;61.29
3254;BME280;1639;42.804;23.342;2023-07-29T05:27:54;72116.13;;;-148.52;61.60
3254;BME280;1639;42.804;23.342;2023-07-29T05:30:19;72095.47;;;-148.52;60.75
3254;BME280;1639;42.804;23.342;2023-07-29T05:32:44;72087.19;;;-148.52;60.72
3254;BME280;1639;42.804;23.342;2023-07-29T05:35:10;72074.78;;;-148.52;59.78
3254;BME280;1639;42.804;23.342;2023-07-29T05:37:39;72062.38;;;-148.52;59.20
3254;BME280;1639;42.804;23.342;2023-07-29T05:40:07;72062.38;;;-148.52;59.42
3254;BME280;1639;42.804;23.342;2023-07-29T05:42:36;72045.84;;;-148.52;59.35
3254;BME280;1639;42.804;23.342;2023-07-29T05:45:02;72047.91;;;-148.52;58.71
3254;BME280;1639;42.804;23.342;2023-07-29T05:47:27;72037.56;;;-148.52;59.35
3254;BME280;1639;42.804;23.342;2023-07-29T05:49:53;72033.44;;;-148.52;58.51
3254;BME280;1639;42.804;23.342;2023-07-29T05:52:18;72016.88;;;-148.52;59.06
3254;BME280;1639;42.804;23.342;2023-07-29T05:54:44;72004.47;;;-148.52;58.52
3254;BME280;1639;42.804;23.342;2023-07-29T05:57:11;72023.09;;;-148.52;58.35
3254;BME280;1639;42.804;23.342;2023-07-29T05:59:37;72035.50;;;-148.52;58.87
3254;BME280;1639;42.804;23.342;2023-07-29T06:02:02;72016.88;;;-148.52;58.97
3254;BME280;1639;42.804;23.342;2023-07-29T06:04:27;72014.81;;;-148.52;57.59
3254;BME280;1639;42.804;23.342;2023-07-29T06:06:53;71983.81;;;-148.52;56.88
3254;BME280;1639;42.804;23.342;2023-07-29T06:09:20;71959.00;;;-148.52;57.85
3254;BME280;1639;42.804;23.342;2023-07-29T06:11:45;71932.13;;;-148.52;56.41
3254;BME280;1639;42.804;23.342;2023-07-29T06:14:11;71925.91;;;-148.52;57.63
3254;BME280;1639;42.804;23.342;2023-07-29T06:16:36;71921.78;;;-148.52;56.28
3254;BME280;1639;42.804;23.342;2023-07-29T06:19:01;71950.72;;;-148.52;56.53
3254;BME280;1639;42.804;23.342;2023-07-29T06:21:27;71909.38;;;-148.52;55.78
3254;BME280;1639;42.804;23.342;2023-07-29T06:23:52;71876.28;;;-148.52;55.14
3254;BME280;1639;42.804;23.342;2023-07-29T06:26:18;71834.94;;;-148.52;53.86
3254;BME280;1639;42.804;23.342;2023-07-29T06:28:43;71801.84;;;-148.52;53.31
3254;BME280;1639;42.804;23.342;2023-07-29T06:31:08;71785.31;;;-148.52;51.64
3254;BME280;1639;42.804;23.342;2023-07-29T06:33:34;71768.78;;;-148.52;51.73
3254;BME280;1639;42.804;23.342;2023-07-29T06:35:59;71762.56;;;-148.52;50.99
3254;BME280;1639;42.804;23.342;2023-07-29T06:38:24;71748.09;;;-148.52;50.52
3254;BME280;1639;42.804;23.342;2023-07-29T06:40:50;71715.00;;;-148.52;49.04
3254;BME280;1639;42.804;23.342;2023-07-29T06:43:16;71694.34;;;-148.52;49.50
3254;BME280;1639;42.804;23.342;2023-07-29T06:45:42;71665.38;;;-148.52;49.21
3254;BME280;1639;42.804;23.342;2023-07-29T06:48:07;71628.19;;;-148.52;48.77
3254;BME280;1639;42.804;23.342;2023-07-29T06:50:33;71601.31;;;-148.52;48.33
3254;BME280;1639;42.804;23.342;2023-07-29T06:52:58;71584.75;;;-148.52;49.20
3254;BME280;1639;42.804;23.342;2023-07-29T06:55:23;71562.03;;;-148.52;48.52
3254;BME280;1639;42.804;23.342;2023-07-29T06:57:49;71547.53;;;-148.52;49.39
3254;BME280;1639;42.804;23.342;2023-07-29T07:00:14;71551.69;;;-148.52;48.93
3254;BME280;1639;42.804;23.342;2023-07-29T07:02:40;71516.53;;;-148.52;47.51
3254;BME280;1639;42.804;23.342;2023-07-29T07:05:05;71491.72;;;-148.52;47.26
3254;BME280;1639;42.804;23.342;2023-07-29T07:07:30;71462.78;;;-148.52;46.44
3254;BME280;1639;42.804;23.342;2023-07-29T07:09:56;71429.69;;;-148.52;45.00
3254;BME280;1639;42.804;23.342;2023-07-29T07:12:21;71392.50;;;-148.52;44.04
3254;BME280;1639;42.804;23.342;2023-07-29T07:14:47;71361.47;;;-148.52;43.79
3254;BME280;1639;42.804;23.342;2023-07-29T07:17:12;71330.47;;;-148.52;42.91
3254;BME280;1639;42.804;23.342;2023-07-29T07:19:38;71318.06;;;-148.52;42.70
3254;BME280;1639;42.804;23.342;2023-07-29T07:22:03;71289.13;;;-148.52;43.01
3254;BME280;1639;42.804;23.342;2023-07-29T07:24:29;71264.31;;;-148.52;40.52
3254;BME280;1639;42.804;23.342;2023-07-29T07:26:54;71206.44;;;-148.52;40.06
3254;BME280;1639;42.804;23.342;2023-07-29T07:29:20;71171.28;;;-148.52;39.15
3254;BME280;1639;42.804;23.342;2023-07-29T07:31:51;71187.81;;;-148.52;39.28
3254;BME280;1639;42.804;23.342;2023-07-29T07:34:18;71177.50;;;-148.52;38.74
3254;BME280;1639;42.804;23.342;2023-07-29T07:36:44;71160.94;;;-148.52;38.48
3254;BME280;1639;42.804;23.342;2023-07-29T07:39:09;71109.25;;;-148.52;39.29
3254;BME280;1639;42.804;23.342;2023-07-29T07:41:34;71163.00;;;-148.52;39.52
3254;BME280;1639;42.804;23.342;2023-07-29T07:44:00;71227.09;;;-148.52;40.87
3254;BME280;1639;42.804;23.342;2023-07-29T07:46:25;71152.69;;;-148.52;39.84
3254;BME280;1639;42.804;23.342;2023-07-29T07:48:50;71154.75;;;-148.52;40.24
3254;BME280;1639;42.804;23.342;2023-07-29T07:51:16;71107.19;;;-148.52;39.88
3254;BME280;1639;42.804;23.342;2023-07-29T07:53:41;71061.72;;;-148.52;38.60
3254;BME280;1639;42.804;23.342;2023-07-29T07:56:07;71020.38;;;-148.52;37.78
3254;BME280;1639;42.804;23.342;2023-07-29T07:58:33;71032.78;;;-148.52;39.21
3254;BME280;1639;42.804;23.342;2023-07-29T08:01:05;70970.75;;;-148.52;37.82
3254;BME280;1639;42.804;23.342;2023-07-29T08:03:31;70983.16;;;-148.52;39.08
3254;BME280;1639;42.804;23.342;2023-07-29T08:05:57;70935.63;;;-148.52;36.29
3254;BME280;1639;42.804;23.342;2023-07-29T08:08:23;70900.47;;;-148.52;35.81
3254;BME280;1639;42.804;23.342;2023-07-29T08:10:48;70871.53;;;-148.52;35.70
3254;BME280;1639;42.804;23.342;2023-07-29T08:13:14;70859.13;;;-148.52;34.67
3254;BME280;1639;42.804;23.342;2023-07-29T08:15:39;70871.53;;;-148.52;34.68
3254;BME280;1639;42.804;23.342;2023-07-29T08:18:06;70877.75;;;-148.52;35.13
3254;BME280;1639;42.804;23.342;2023-07-29T08:20:31;70883.94;;;-148.52;34.89
3254;BME280;1639;42.804;23.342;2023-07-29T08:22:58;70900.47;;;-148.52;35.42
3254;BME280;1639;42.804;23.342;2023-07-29T08:25:23;70879.81;;;-148.52;36.00
3254;BME280;1639;42.804;23.342;2023-07-29T08:27:48;70850.88;;;-148.52;34.96
3254;BME280;1639;42.804;23.342;2023-07-29T08:30:14;70869.47;;;-148.52;34.77
3254;BME280;1639;42.804;23.342;2023-07-29T08:32:41;70859.13;;;-148.52;35.11
3254;BME280;1639;42.804;23.342;2023-07-29T08:35:06;70821.94;;;-148.52;33.16
3254;BME280;1639;42.804;23.342;2023-07-29T08:37:32;70776.47;;;-148.52;31.54
3254;BME280;1639;42.804;23.342;2023-07-29T08:39:58;70782.66;;;-148.52;31.35
3254;BME280;1639;42.804;23.342;2023-07-29T08:42:31;70749.59;;;-148.52;33.12
3254;BME280;1639;42.804;23.342;2023-07-29T08:45:01;70704.09;;;-148.52;31.98
3254;BME280;1639;42.804;23.342;2023-07-29T08:47:31;70677.25;;;-148.52;31.93
3254;BME280;1639;42.804;23.342;2023-07-29T08:49:57;70697.91;;;-148.52;30.96
3254;BME280;1639;42.804;23.342;2023-07-29T08:52:25;70681.38;;;-148.52;31.37
3254;BME280;1639;42.804;23.342;2023-07-29T08:54:51;70640.03;;;-148.52;32.13
3254;BME280;1639;42.804;23.342;2023-07-29T08:57:18;70602.81;;;-148.52;32.14
3254;BME280;1639;42.804;23.342;2023-07-29T08:59:45;70559.41;;;-148.52;31.13
3254;BME280;1639;42.804;23.342;2023-07-29T09:02:11;70530.47;;;-148.52;30.75
3254;BME280;1639;42.804;23.342;2023-07-29T09:04:36;70503.63;;;-148.52;30.82
3254;BME280;1639;42.804;23.342;2023-07-29T09:07:02;70474.69;;;-148.52;29.71
3254;BME280;1639;42.804;23.342;2023-07-29T09:09:28;70478.81;;;-148.52;30.81
3254;BME280;1639;42.804;23.342;2023-07-29T09:11:53;70493.28;;;-148.52;29.14
3254;BME280;1639;42.804;23.342;2023-07-29T09:14:19;70495.34;;;-148.52;29.21
3254;BME280;1639;42.804;23.342;2023-07-29T09:16:45;70493.28;;;-148.52;28.30
3254;BME280;1639;42.804;23.342;2023-07-29T09:19:11;70482.94;;;-148.52;28.67
3254;BME280;1639;42.804;23.342;2023-07-29T09:21:39;70447.81;;;-148.52;28.80
3254;BME280;1639;42.804;23.342;2023-07-29T09:24:05;70441.59;;;-148.52;28.56
3254;BME280;1639;42.804;23.342;2023-07-29T09:26:30;70433.34;;;-148.52;28.09
3254;BME280;1639;42.804;23.342;2023-07-29T09:28:58;70425.06;;;-148.52;28.74
3254;BME280;1639;42.804;23.342;2023-07-29T09:31:25;70495.34;;;-148.52;29.40
3254;BME280;1639;42.804;23.342;2023-07-29T09:34:02;70561.50;;;-148.52;29.51
3254;BME280;1639;42.804;23.342;2023-07-29T09:36:30;70640.03;;;-148.52;30.70
3254;BME280;1639;42.804;23.342;2023-07-29T09:38:57;70619.38;;;-148.52;31.40
3254;BME280;1639;42.804;23.342;2023-07-29T09:41:23;70673.09;;;-148.52;30.01
3254;BME280;1639;42.804;23.342;2023-07-29T09:43:55;70710.31;;;-148.52;31.11
3254;BME280;1639;42.804;23.342;2023-07-29T09:46:22;70646.22;;;-148.52;30.21
3254;BME280;1639;42.804;23.342;2023-07-29T09:48:48;70594.56;;;-148.52;29.29
3254;BME280;1639;42.804;23.342;2023-07-29T09:51:16;70563.56;;;-148.52;30.67
3254;BME280;1639;42.804;23.342;2023-07-29T09:53:43;70544.94;;;-148.52;29.66
3254;BME280;1639;42.804;23.342;2023-07-29T09:56:09;70555.28;;;-148.52;28.49
3254;BME280;1639;42.804;23.342;2023-07-29T09:58:34;70600.75;;;-148.52;29.86
3254;BME280;1639;42.804;23.342;2023-07-29T10:01:01;70540.81;;;-148.52;30.27
3254;BME280;1639;42.804;23.342;2023-07-29T10:03:27;70540.81;;;-148.52;28.60
3254;BME280;1639;42.804;23.342;2023-07-29T10:05:53;70505.69;;;-148.52;29.06
3254;BME280;1639;42.804;23.342;2023-07-29T10:08:18;70489.16;;;-148.52;28.44
3254;BME280;1639;42.804;23.342;2023-07-29T10:10:45;70441.59;;;-148.52;28.80
3254;BME280;1639;42.804;23.342;2023-07-29T10:13:12;70387.88;;;-148.52;27.44
3254;BME280;1639;42.804;23.342;2023-07-29T10:15:38;70338.25;;;-148.52;27.96
3254;BME280;1639;42.804;23.342;2023-07-29T10:18:03;70305.19;;;-148.52;27.92
3254;BME280;1639;42.804;23.342;2023-07-29T10:20:33;70325.84;;;-148.52;28.85
3254;BME280;1639;42.804;23.342;2023-07-29T10:23:00;70334.13;;;-148.52;28.77
3254;BME280;1639;42.804;23.342;2023-07-29T10:25:37;70321.72;;;-148.52;27.22
3254;BME280;1639;42.804;23.342;2023-07-29T10:28:07;70379.59;;;-148.52;28.48
3254;BME280;1639;42.804;23.342;2023-07-29T10:30:33;70338.25;;;-148.52;27.23
3254;BME280;1639;42.804;23.342;2023-07-29T10:33:02;70375.47;;;-148.52;26.83
3254;BME280;1639;42.804;23.342;2023-07-29T10:35:29;70363.06;;;-148.52;27.71
3254;BME280;1639;42.804;23.342;2023-07-29T10:37:54;70305.19;;;-148.52;26.31
3254;BME280;1639;42.804;23.342;2023-07-29T10:40:20;70367.19;;;-148.52;27.24
3254;BME280;1639;42.804;23.342;2023-07-29T10:43:11;70330.00;;;-148.52;26.31
3254;BME280;1639;42.804;23.342;2023-07-29T10:45:41;70309.31;;;-148.52;26.97
3254;BME280;1639;42.804;23.342;2023-07-29T10:51:28;70309.31;;;-148.52;26.09
3254;BME280;1639;42.804;23.342;2023-07-29T10:54:12;70309.31;;;-148.52;26.60
3254;BME280;1639;42.804;23.342;2023-07-29T10:56:42;70255.59;;;-148.52;26.34
3254;BME280;1639;42.804;23.342;2023-07-29T11:01:51;70276.25;;;-148.52;26.23
3254;BME280;1639;42.804;23.342;2023-07-29T11:12:38;70265.94;;;-148.52;26.04
3254;BME280;1639;42.804;23.342;2023-07-29T11:17:36;70317.59;;;-148.52;25.97
3254;BME280;1639;42.804;23.342;2023-07-29T11:20:02;70344.47;;;-148.52;25.55
3254;BME280;1639;42.804;23.342;2023-07-29T11:22:28;70292.78;;;-148.52;26.12
3254;BME280;1639;42.804;23.342;2023-07-29T11:24:54;70247.31;;;-148.52;25.16
3254;BME280;1639;42.804;23.342;2023-07-29T11:27:20;70205.97;;;-148.52;25.11
3254;BME280;1639;42.804;23.342;2023-07-29T11:29:46;70220.44;;;-148.52;24.68
3254;BME280;1639;42.804;23.342;2023-07-29T11:32:11;70253.53;;;-148.52;23.59
3254;BME280;1639;42.804;23.342;2023-07-29T11:34:37;70193.59;;;-148.52;22.29
3254;BME280;1639;42.804;23.342;2023-07-29T11:37:02;70193.59;;;-148.52;23.12
3254;BME280;1639;42.804;23.342;2023-07-29T11:39:28;70239.06;;;-148.52;23.64
3254;BME280;1639;42.804;23.342;2023-07-29T11:41:53;70230.78;;;-148.52;22.94
3254;BME280;1639;42.804;23.342;2023-07-29T11:44:19;70224.59;;;-148.52;23.71
3254;BME280;1639;42.804;23.342;2023-07-29T11:46:44;70263.84;;;-148.52;22.37
3254;BME280;1639;42.804;23.342;2023-07-29T11:49:10;70234.91;;;-148.52;23.30
3254;BME280;1639;42.804;23.342;2023-07-29T11:51:36;70216.31;;;-148.52;24.47
3254;BME280;1639;42.804;23.342;2023-07-29T11:54:02;70218.38;;;-148.52;24.03
3254;BME280;1639;42.804;23.342;2023-07-29T11:56:29;70195.66;;;-148.52;23.59
3254;BME280;1639;42.804;23.342;2023-07-29T11:58:55;70183.25;;;-148.52;23.92
3254;BME280;1639;42.804;23.342;2023-07-29T12:01:22;70143.97;;;-148.52;25.32
3254;BME280;1639;42.804;23.342;2023-07-29T12:03:49;70115.03;;;-148.52;23.50
3254;BME280;1639;42.804;23.342;2023-07-29T12:06:15;70092.31;;;-148.52;23.63
3254;BME280;1639;42.804;23.342;2023-07-29T12:08:41;70069.59;;;-148.52;23.78
3254;BME280;1639;42.804;23.342;2023-07-29T12:11:08;70061.31;;;-148.52;23.15
3254;BME280;1639;42.804;23.342;2023-07-29T12:13:33;70048.91;;;-148.52;23.67
3254;BME280;1639;42.804;23.342;2023-07-29T12:16:03;70024.13;;;-148.52;24.02
3254;BME280;1639;42.804;23.342;2023-07-29T12:18:36;70059.25;;;-148.52;22.73
3254;BME280;1639;42.804;23.342;2023-07-29T12:21:02;70057.19;;;-148.52;24.95
3254;BME280;1639;42.804;23.342;2023-07-29T12:23:29;70055.13;;;-148.52;23.63
3254;BME280;1639;42.804;23.342;2023-07-29T12:25:58;70032.38;;;-148.52;23.10
3254;BME280;1639;42.804;23.342;2023-07-29T12:28:25;70024.13;;;-148.52;22.71
3254;BME280;1639;42.804;23.342;2023-07-29T12:30:57;70024.13;;;-148.52;22.45
3254;BME280;1639;42.804;23.342;2023-07-29T12:33:49;70050.97;;;-148.52;22.25
3254;BME280;1639;42.804;23.342;2023-07-29T12:36:14;70032.38;;;-148.52;22.90
3254;BME280;1639;42.804;23.342;2023-07-29T12:38:43;70007.59;;;-148.52;23.26
3254;BME280;1639;42.804;23.342;2023-07-29T12:41:08;70030.31;;;-148.52;22.63
3254;BME280;1639;42.804;23.342;2023-07-29T12:43:34;70040.66;;;-148.52;22.02
3254;BME280;1639;42.804;23.342;2023-07-29T12:46:00;70003.44;;;-148.52;21.94
3254;BME280;1639;42.804;23.342;2023-07-29T12:48:25;69995.19;;;-148.52;21.30
3254;BME280;1639;42.804;23.342;2023-07-29T12:50:51;70003.44;;;-148.52;21.76
3254;BME280;1639;42.804;23.342;2023-07-29T12:53:16;70015.84;;;-148.52;21.92
3254;BME280;1639;42.804;23.342;2023-07-29T12:55:43;70040.66;;;-148.52;22.93
3254;BME280;1639;42.804;23.342;2023-07-29T12:58:08;70019.97;;;-148.52;23.91
3254;BME280;1639;42.804;23.342;2023-07-29T13:00:33;70007.59;;;-148.52;22.64
3254;BME280;1639;42.804;23.342;2023-07-29T13:02:59;70057.19;;;-148.52;21.76
3254;BME280;1639;42.804;23.342;2023-07-29T13:05:24;70073.72;;;-148.52;22.02
3254;BME280;1639;42.804;23.342;2023-07-29T13:07:49;70106.78;;;-148.52;22.50
3254;BME280;1639;42.804;23.342;2023-07-29T13:10:15;70092.31;;;-148.52;22.65